Hovedside
METAR-TAF:

METAR-TAF

Lufthavner :

Xi'an Xianyang internasjonale lufthavn

Xi'an, Kina

breddegrad: 34-26N, lengdegrad: 108-45E, høyde over havet: 479 m

Gjeldene værobservasjon

Denne rapporten ble laget for 20 minutter siden, klokken 17:00 UTC
Vind 4 kt fra Nord
Temperatur 26°C
Luftfuktighet 74%
Trykk 1003 hPa
Sikt 10 km eller mer
ingen skyer under 1500 m og ingen bygeskyer

METAR: ZLXY 231700Z 01002MPS CAVOK 26/21 Q1003 NOSIG

Tid: 01:20 (17:20 UTC)

Varsel

Denne rapporten ble laget for 8 timer og 17 minutter siden, klokken 09:03 UTC
Varsel gyldig fra 23. klokken 12 UTC til 24. klokken 12 UTC
Vind 8 kt fra Øst-nordøst med vindkast opp mot 17 kt
Sikt: 5000 m
dis

TAF: ZLXY 230903Z 2312/2412 06004G09MPS 5000 HZ NSC TX37/2408Z TN26/2322Z

Værobservasjoner og værvarsel for over 4000 flyplasser (METAR- og TAF-rapporter).

Tilgjengelige stasjoner er representert av de røde og gule prikkene på kartet.

Hold musepekeren over prikken for å se navnet på stasjonen.

Klikk så for å se værobservasjoner og -varsler.

For å forandre kartet kan du klikke på den grønne knappen med svart kryss for å zoome inn, på den grønne knappen med strek for å zoome ut, eller på de grønne pilene for å se tilstøtende kart.


METAR-TAF: